Time;durP1;ratioP1;P1;durP2;ratioP2;P2;SDS_P1;SDS_P2;PMS_P1;PMS_P2;Temp;Humidity;BMP_temperature;BMP_pressure;BME280_temperature;BME280_humidity;BME280_pressure;Samples;Min_cycle;Max_cycle;Signal;HPM_P1;HPM_P2
2022/06/07 00:00:23;;;;;;;20.02;15.20;;;12.40;99.90;;;;;;4833966;29;20512;-89
2022/06/07 00:02:49;;;;;;;23.75;17.08;;;12.40;99.90;;;;;;4845437;29;20105;-89
2022/06/07 00:05:16;;;;;;;25.73;18.00;;;12.40;99.90;;;;;;4831366;29;20037;-89
2022/06/07 00:07:42;;;;;;;23.23;17.52;;;12.30;99.90;;;;;;4833756;29;20068;-89
2022/06/07 00:10:09;;;;;;;23.42;18.48;;;12.30;99.90;;;;;;4864554;29;20049;-89
2022/06/07 00:12:35;;;;;;;24.25;18.40;;;12.30;99.90;;;;;;4833385;29;20041;-89
2022/06/07 00:15:05;;;;;;;24.35;18.13;;;12.40;99.90;;;;;;4883015;29;20068;-88
2022/06/07 00:17:34;;;;;;;24.55;19.48;;;12.40;99.90;;;;;;4849833;29;20041;-89
2022/06/07 00:20:05;;;;;;;26.25;19.27;;;12.30;99.90;;;;;;4825707;29;20119;-89
2022/06/07 00:22:32;;;;;;;24.38;19.90;;;12.30;99.90;;;;;;4855038;29;20120;-89
2022/06/07 00:24:58;;;;;;;25.73;21.60;;;12.40;99.90;;;;;;4850843;29;20037;-89
2022/06/07 00:27:24;;;;;;;25.38;21.40;;;12.40;99.90;;;;;;4838425;29;20516;-89
2022/06/07 00:29:50;;;;;;;29.85;23.35;;;12.40;99.90;;;;;;4861306;29;20049;-88
2022/06/07 00:32:19;;;;;;;27.83;22.27;;;12.40;99.90;;;;;;4840069;29;20496;-89
2022/06/07 00:34:45;;;;;;;25.40;20.98;;;12.50;99.90;;;;;;4848871;29;20050;-89
2022/06/07 00:37:11;;;;;;;28.13;22.80;;;12.50;99.90;;;;;;4852811;29;20136;-89
2022/06/07 00:39:37;;;;;;;27.77;22.40;;;12.50;99.90;;;;;;4847948;29;20123;-88
2022/06/07 00:42:03;;;;;;;27.00;22.80;;;12.50;99.90;;;;;;4834884;29;20468;-88
2022/06/07 00:44:34;;;;;;;25.00;20.27;;;12.50;99.90;;;;;;4832702;29;20041;-88
2022/06/07 00:47:17;;;;;;;25.23;21.35;;;12.50;99.90;;;;;;4848371;29;20045;-88
2022/06/07 00:50:03;;;;;;;25.30;22.02;;;12.60;99.90;;;;;;4849134;29;20101;-88
2022/06/07 00:52:31;;;;;;;25.95;21.17;;;12.50;99.90;;;;;;4863166;29;20377;-88
2022/06/07 00:54:57;;;;;;;22.95;20.05;;;12.60;99.90;;;;;;4847927;29;20125;-88
2022/06/07 00:57:24;;;;;;;26.88;22.77;;;12.50;99.90;;;;;;4862225;29;20072;-88
2022/06/07 00:59:53;;;;;;;24.30;20.40;;;12.60;99.90;;;;;;4832891;29;20489;-88
2022/06/07 01:02:20;;;;;;;25.02;22.15;;;12.60;99.90;;;;;;4833589;29;20416;-88
2022/06/07 01:04:45;;;;;;;27.05;22.20;;;12.60;99.90;;;;;;4841208;29;20041;-88
2022/06/07 01:12:39;;;;;;;26.27;23.25;;;12.60;99.90;;;;;;4847770;29;20053;-88
2022/06/07 01:15:07;;;;;;;24.98;22.38;;;12.60;99.90;;;;;;4863709;29;20052;-87
2022/06/07 01:17:33;;;;;;;24.00;21.40;;;12.60;99.90;;;;;;4847870;29;20045;-87
2022/06/07 01:19:58;;;;;;;23.83;21.25;;;12.60;99.90;;;;;;4849564;29;20511;-87
2022/06/07 01:22:24;;;;;;;24.75;22.20;;;12.60;99.90;;;;;;4847675;29;20401;-87
2022/06/07 01:24:50;;;;;;;26.48;23.38;;;12.60;99.90;;;;;;4832323;29;20084;-88
2022/06/07 01:27:16;;;;;;;25.85;22.50;;;12.60;99.90;;;;;;4832558;29;20041;-87
2022/06/07 01:29:44;;;;;;;24.80;22.30;;;12.60;99.90;;;;;;4845033;29;20409;-87
2022/06/07 01:32:11;;;;;;;23.27;20.88;;;12.60;99.90;;;;;;4843058;29;20090;-87
2022/06/07 01:34:42;;;;;;;23.25;20.75;;;12.70;99.90;;;;;;4823378;29;20127;-87
2022/06/07 01:37:10;;;;;;;21.80;19.48;;;12.70;99.90;;;;;;4862748;29;20100;-87
2022/06/07 01:42:21;;;;;;;25.13;19.80;;;12.70;99.90;;;;;;4862903;29;20381;-87
2022/06/07 01:44:49;;;;;;;24.85;20.70;;;12.70;99.90;;;;;;4847470;29;20041;-87
2022/06/07 01:47:26;;;;;;;21.10;18.40;;;12.70;99.90;;;;;;4847496;29;20041;-87
2022/06/07 01:49:52;;;;;;;21.25;19.02;;;12.70;99.90;;;;;;4846696;29;20048;-87
2022/06/07 01:52:22;;;;;;;21.92;18.77;;;12.70;99.90;;;;;;4847157;29;20485;-87
2022/06/07 01:54:48;;;;;;;23.13;20.30;;;12.70;99.90;;;;;;4844202;29;20501;-87
2022/06/07 01:57:14;;;;;;;21.42;18.17;;;12.60;99.90;;;;;;4859856;29;20060;-87
2022/06/07 01:59:40;;;;;;;21.90;18.70;;;12.60;99.90;;;;;;4829106;29;20045;-87
2022/06/07 02:02:08;;;;;;;21.30;18.70;;;12.70;99.90;;;;;;4825932;29;20054;-87
2022/06/07 02:04:38;;;;;;;21.27;18.75;;;12.70;99.90;;;;;;4868190;29;20034;-87
2022/06/07 02:07:05;;;;;;;20.70;18.50;;;12.70;99.90;;;;;;4865924;29;20041;-87
2022/06/07 02:09:31;;;;;;;20.10;17.63;;;12.60;99.90;;;;;;4829125;29;20400;-87
2022/06/07 02:11:58;;;;;;;22.50;17.75;;;12.60;99.90;;;;;;4859528;29;20133;-87
2022/06/07 02:14:24;;;;;;;23.27;19.70;;;12.70;99.90;;;;;;4859633;29;20045;-87
2022/06/07 02:16:50;;;;;;;22.83;19.10;;;12.70;99.90;;;;;;4827594;29;20044;-87
2022/06/07 02:19:15;;;;;;;23.02;18.63;;;12.70;99.90;;;;;;4830636;29;20049;-87
2022/06/07 02:21:41;;;;;;;22.95;19.58;;;12.60;99.90;;;;;;4828492;29;20060;-87
2022/06/07 02:24:08;;;;;;;20.90;18.65;;;12.60;99.90;;;;;;4825684;29;20494;-88
2022/06/07 02:26:43;;;;;;;21.80;18.40;;;12.60;99.90;;;;;;4858893;29;20034;-88
2022/06/07 02:29:30;;;;;;;21.00;18.33;;;12.60;99.90;;;;;;4844063;29;20053;-88
2022/06/07 02:32:01;;;;;;;24.17;19.75;;;12.70;99.90;;;;;;4857261;29;20046;-88
2022/06/07 02:34:28;;;;;;;24.55;19.98;;;12.70;99.90;;;;;;4843432;29;20048;-88
2022/06/07 02:36:57;;;;;;;23.33;19.48;;;12.70;99.90;;;;;;4825675;29;20041;-88
2022/06/07 02:39:24;;;;;;;26.02;20.65;;;12.70;99.90;;;;;;4859200;29;20045;-88
2022/06/07 02:41:51;;;;;;;23.40;18.35;;;12.70;99.90;;;;;;4828533;29;20098;-88
2022/06/07 02:44:16;;;;;;;22.75;19.13;;;12.70;99.90;;;;;;4859445;29;20037;-88
2022/06/07 02:46:42;;;;;;;25.92;20.67;;;12.70;99.90;;;;;;4859261;29;20102;-89
2022/06/07 02:49:08;;;;;;;23.48;19.77;;;12.70;99.90;;;;;;4828088;29;20508;-88
2022/06/07 02:51:34;;;;;;;24.55;19.75;;;12.70;99.90;;;;;;4848813;29;20054;-88
2022/06/07 02:54:00;;;;;;;23.40;20.05;;;12.70;99.90;;;;;;4861017;29;20061;-88
2022/06/07 02:56:26;;;;;;;23.25;18.58;;;12.70;99.90;;;;;;4831684;29;20049;-88
2022/06/07 02:58:51;;;;;;;22.40;18.60;;;12.70;99.90;;;;;;4831067;29;20097;-88
2022/06/07 03:01:17;;;;;;;23.98;19.27;;;12.70;99.90;;;;;;4832022;29;20041;-88
2022/06/07 03:03:43;;;;;;;23.45;19.80;;;12.70;99.90;;;;;;4831110;29;20041;-88
2022/06/07 03:06:09;;;;;;;25.10;20.42;;;12.70;99.90;;;;;;4831345;29;20157;-88
2022/06/07 03:08:35;;;;;;;23.98;20.15;;;12.70;99.90;;;;;;4850345;29;20105;-89
2022/06/07 03:11:01;;;;;;;24.48;19.42;;;12.60;99.90;;;;;;4835058;29;20069;-88
2022/06/07 03:13:26;;;;;;;24.98;19.88;;;12.60;99.90;;;;;;4865732;29;20139;-89
2022/06/07 03:15:52;;;;;;;23.27;20.05;;;12.70;99.90;;;;;;4833311;29;20540;-88
2022/06/07 03:18:19;;;;;;;23.65;20.25;;;12.60;99.90;;;;;;4834378;29;20121;-89
2022/06/07 03:20:48;;;;;;;25.60;21.42;;;12.70;99.90;;;;;;4870723;29;20060;-89
2022/06/07 03:23:14;;;;;;;25.77;20.83;;;12.60;99.90;;;;;;4836616;29;20124;-88
2022/06/07 03:25:40;;;;;;;23.88;20.50;;;12.70;99.90;;;;;;4850131;29;20552;-88
2022/06/07 03:28:06;;;;;;;25.98;21.80;;;12.70;99.90;;;;;;4834965;29;20040;-88
2022/06/07 03:30:32;;;;;;;25.23;20.98;;;12.70;99.90;;;;;;4864518;29;20448;-89
2022/06/07 03:32:58;;;;;;;23.95;21.35;;;12.70;99.90;;;;;;4839686;29;20049;-88
2022/06/07 03:35:24;;;;;;;23.92;20.80;;;12.70;99.90;;;;;;4834850;29;20565;-88
2022/06/07 03:37:50;;;;;;;27.02;22.67;;;12.70;99.90;;;;;;4849309;29;20049;-88
2022/06/07 03:40:42;;;;;;;24.23;21.52;;;12.70;99.90;;;;;;4834043;29;20037;-88
2022/06/07 03:43:03;;;;;;;26.50;20.88;;;12.70;99.90;;;;;;4853590;29;20132;-88
2022/06/07 03:45:29;;;;;;;24.67;21.42;;;12.70;99.90;;;;;;4859879;29;20037;-88
2022/06/07 03:47:55;;;;;;;26.20;21.30;;;12.70;99.90;;;;;;4852653;29;20081;-88
2022/06/07 03:50:21;;;;;;;25.67;21.40;;;12.80;99.90;;;;;;4877054;29;20087;-88
2022/06/07 03:52:46;;;;;;;24.95;22.05;;;12.80;99.90;;;;;;4860410;29;20535;-87
2022/06/07 03:55:12;;;;;;;25.27;22.02;;;12.80;99.90;;;;;;4833315;29;20078;-88
2022/06/07 03:57:38;;;;;;;27.42;21.40;;;12.70;99.90;;;;;;4861711;29;20101;-88
2022/06/07 04:00:08;;;;;;;25.75;21.10;;;12.80;99.90;;;;;;4846679;29;20413;-87
2022/06/07 04:02:34;;;;;;;25.52;21.92;;;12.80;99.90;;;;;;4861580;29;20489;-88
2022/06/07 04:05:00;;;;;;;28.00;22.10;;;12.80;99.90;;;;;;4845471;29;20052;-88
2022/06/07 04:10:11;;;;;;;24.17;21.05;;;12.80;99.90;;;;;;4848707;29;20049;-88
2022/06/07 04:12:36;;;;;;;24.85;21.73;;;12.80;99.90;;;;;;4830579;29;20045;-88
2022/06/07 04:15:02;;;;;;;24.75;20.52;;;12.80;99.90;;;;;;4812899;29;20086;-88
2022/06/07 04:17:28;;;;;;;24.88;20.80;;;12.90;99.90;;;;;;4846176;29;20041;-88
2022/06/07 04:19:54;;;;;;;24.98;20.30;;;12.90;99.90;;;;;;4844730;29;20504;-88
2022/06/07 04:22:20;;;;;;;23.35;19.90;;;12.80;99.90;;;;;;4839819;29;20041;-88
2022/06/07 04:24:46;;;;;;;24.50;19.83;;;12.90;99.90;;;;;;4830441;29;20049;-88
2022/06/07 04:27:13;;;;;;;22.58;19.98;;;12.90;99.90;;;;;;4838621;29;20042;-88
2022/06/07 04:29:39;;;;;;;25.38;19.58;;;12.90;99.90;;;;;;4837359;29;20074;-88
2022/06/07 04:32:05;;;;;;;23.23;18.70;;;13.00;99.90;;;;;;4852011;29;20049;-88
2022/06/07 04:34:31;;;;;;;23.23;18.23;;;12.90;99.90;;;;;;4845184;29;20053;-88
2022/06/07 04:36:57;;;;;;;23.73;18.42;;;12.90;99.90;;;;;;4861267;29;20413;-88
2022/06/07 04:39:23;;;;;;;22.77;17.73;;;13.00;99.90;;;;;;4836147;29;20049;-88
2022/06/07 04:41:48;;;;;;;22.20;18.23;;;13.00;99.90;;;;;;4844341;29;20053;-88
2022/06/07 04:44:14;;;;;;;24.17;18.95;;;13.00;99.90;;;;;;4845741;29;20041;-88
2022/06/07 04:46:40;;;;;;;22.45;18.38;;;13.00;99.90;;;;;;4845564;29;20041;-88
2022/06/07 04:49:06;;;;;;;26.23;18.20;;;13.00;99.90;;;;;;4860158;29;20070;-88
2022/06/07 04:51:35;;;;;;;22.73;18.33;;;13.00;99.90;;;;;;4843904;29;20044;-88
2022/06/07 04:54:01;;;;;;;22.60;17.55;;;13.00;99.90;;;;;;4864464;29;20121;-88
2022/06/07 04:56:32;;;;;;;25.27;19.48;;;13.00;99.90;;;;;;4847891;29;20049;-88
2022/06/07 04:59:00;;;;;;;23.57;18.27;;;13.00;99.90;;;;;;4850277;29;20041;-88
2022/06/07 05:01:36;;;;;;;21.67;17.52;;;13.10;99.90;;;;;;4848794;29;20321;-88
2022/06/07 05:04:04;;;;;;;23.63;18.63;;;13.10;99.90;;;;;;4832699;29;20146;-88
2022/06/07 05:06:33;;;;;;;24.10;19.42;;;13.10;99.90;;;;;;4833586;29;20037;-88
2022/06/07 05:09:09;;;;;;;23.45;19.10;;;13.10;99.90;;;;;;4851994;29;20426;-88
2022/06/07 05:11:35;;;;;;;22.58;17.27;;;13.10;99.90;;;;;;4848229;29;20052;-88
2022/06/07 05:14:03;;;;;;;21.80;17.95;;;13.20;99.90;;;;;;4821757;29;20406;-88
2022/06/07 05:16:29;;;;;;;23.40;17.92;;;13.20;99.90;;;;;;4843964;29;20048;-88
2022/06/07 05:18:55;;;;;;;23.15;18.10;;;13.20;99.90;;;;;;4850808;29;20413;-88
2022/06/07 05:21:24;;;;;;;24.23;18.75;;;13.20;99.90;;;;;;4831433;29;20041;-88
2022/06/07 05:23:50;;;;;;;22.95;17.48;;;13.20;99.90;;;;;;4863063;29;20113;-87
2022/06/07 05:26:35;;;;;;;23.52;17.92;;;13.30;99.90;;;;;;4852736;29;20041;-88
2022/06/07 05:29:01;;;;;;;22.13;17.70;;;13.30;99.90;;;;;;4856845;29;20120;-87
2022/06/07 05:31:27;;;;;;;23.50;17.67;;;13.30;99.90;;;;;;4833942;29;20053;-87
2022/06/07 05:33:53;;;;;;;23.10;17.85;;;13.30;99.90;;;;;;4831711;29;20041;-87
2022/06/07 05:36:20;;;;;;;22.42;17.48;;;13.40;99.90;;;;;;4868808;29;20046;-88
2022/06/07 05:38:47;;;;;;;22.75;17.23;;;13.40;99.90;;;;;;4856709;29;20045;-88
2022/06/07 05:41:33;;;;;;;22.42;18.00;;;13.40;99.90;;;;;;4872621;29;20036;-87
2022/06/07 05:43:59;;;;;;;22.58;18.13;;;13.40;99.90;;;;;;4839930;29;20041;-87
2022/06/07 05:46:25;;;;;;;23.55;17.13;;;13.30;99.90;;;;;;4862288;29;20041;-88
2022/06/07 05:48:51;;;;;;;23.10;17.65;;;13.30;99.90;;;;;;4826642;29;20044;-88
2022/06/07 05:51:17;;;;;;;21.95;17.50;;;13.40;99.90;;;;;;4840717;29;20056;-88
2022/06/07 05:53:43;;;;;;;23.88;17.25;;;13.40;99.90;;;;;;4831071;29;20045;-88
2022/06/07 05:56:12;;;;;;;22.85;17.15;;;13.50;99.90;;;;;;4844212;29;20097;-88
2022/06/07 05:58:38;;;;;;;21.02;16.65;;;13.40;99.90;;;;;;4859778;29;20174;-88
2022/06/07 06:01:07;;;;;;;23.48;17.33;;;13.50;99.90;;;;;;4848310;29;20069;-88
2022/06/07 06:03:35;;;;;;;23.48;17.58;;;13.50;99.90;;;;;;4846695;29;20078;-88
2022/06/07 06:06:01;;;;;;;22.75;18.05;;;13.50;99.90;;;;;;4847441;29;20381;-88
2022/06/07 06:11:17;;;;;;;20.25;16.83;;;13.40;99.90;;;;;;4841778;29;20551;-88
2022/06/07 06:13:43;;;;;;;22.88;17.65;;;13.40;99.90;;;;;;4847222;29;20484;-88
2022/06/07 06:16:14;;;;;;;20.52;16.77;;;13.40;99.90;;;;;;4862638;29;20077;-88
2022/06/07 06:18:41;;;;;;;23.55;17.35;;;13.30;99.90;;;;;;4846528;29;20111;-88
2022/06/07 06:21:07;;;;;;;23.45;17.40;;;13.40;99.90;;;;;;4841917;29;20040;-88
2022/06/07 06:23:33;;;;;;;21.00;17.30;;;13.40;99.90;;;;;;4864424;29;20087;-89
2022/06/07 06:25:59;;;;;;;23.80;17.40;;;13.40;99.90;;;;;;4827950;29;20428;-88
2022/06/07 06:28:25;;;;;;;21.42;17.35;;;13.40;99.90;;;;;;4859227;29;20044;-89
2022/06/07 06:30:52;;;;;;;20.90;16.35;;;13.40;99.90;;;;;;4844526;29;20080;-88
2022/06/07 06:33:18;;;;;;;21.63;16.77;;;13.40;99.90;;;;;;4841626;29;20060;-88
2022/06/07 06:35:51;;;;;;;22.38;16.17;;;13.40;99.90;;;;;;4861477;29;20067;-88
2022/06/07 06:38:18;;;;;;;19.85;16.45;;;13.40;99.90;;;;;;4846531;29;20381;-89
2022/06/07 06:40:45;;;;;;;21.58;15.95;;;13.40;99.90;;;;;;4844169;29;20132;-87
2022/06/07 06:43:12;;;;;;;20.08;15.82;;;13.50;99.90;;;;;;4858467;29;20564;-88
2022/06/07 06:45:39;;;;;;;21.20;16.15;;;13.50;99.90;;;;;;4851405;29;20038;-88
2022/06/07 06:48:06;;;;;;;22.38;16.38;;;13.40;99.90;;;;;;4854956;29;20141;-87
2022/06/07 06:50:32;;;;;;;19.33;15.48;;;13.50;99.90;;;;;;4838441;29;20059;-88
2022/06/07 06:52:58;;;;;;;21.15;16.38;;;13.50;99.90;;;;;;4849166;29;20497;-88
2022/06/07 06:55:24;;;;;;;20.98;16.30;;;13.40;99.90;;;;;;4833783;29;20086;-88
2022/06/07 06:57:50;;;;;;;19.30;15.10;;;13.50;99.90;;;;;;4848745;29;20525;-87
2022/06/07 07:00:16;;;;;;;20.73;16.20;;;13.40;99.90;;;;;;4848806;29;20108;-88
2022/06/07 07:02:44;;;;;;;19.85;15.73;;;13.40;99.90;;;;;;4848054;29;20037;-88
2022/06/07 07:05:12;;;;;;;22.90;16.00;;;13.40;99.90;;;;;;4848186;29;20113;-88
2022/06/07 07:07:39;;;;;;;22.98;16.10;;;13.40;99.90;;;;;;4849044;29;20044;-88
2022/06/07 07:10:07;;;;;;;19.27;14.98;;;13.40;99.90;;;;;;4849691;29;20049;-88
2022/06/07 07:12:33;;;;;;;20.45;15.07;;;13.30;99.90;;;;;;4833044;29;20489;-88
2022/06/07 07:14:59;;;;;;;17.67;12.93;;;13.30;99.90;;;;;;4846857;29;20087;-86
2022/06/07 07:17:25;;;;;;;17.17;13.02;;;13.20;99.90;;;;;;4844894;29;20513;-88
2022/06/07 07:19:51;;;;;;;20.50;14.65;;;13.20;99.90;;;;;;4850557;29;20048;-88
2022/06/07 07:22:18;;;;;;;22.55;16.08;;;13.10;99.90;;;;;;4854388;29;20048;-88
2022/06/07 07:24:44;;;;;;;21.08;14.45;;;13.10;99.90;;;;;;4866931;29;20084;-88
2022/06/07 07:27:10;;;;;;;18.27;13.80;;;13.20;99.90;;;;;;4815188;29;20152;-88
2022/06/07 07:29:37;;;;;;;21.17;15.73;;;13.20;99.90;;;;;;4817171;29;20449;-88
2022/06/07 07:32:04;;;;;;;20.02;14.52;;;13.20;99.90;;;;;;4863342;29;20411;-88
2022/06/07 07:34:30;;;;;;;20.13;14.90;;;13.30;99.90;;;;;;4849612;29;20497;-88
2022/06/07 07:36:57;;;;;;;18.02;14.65;;;13.30;99.90;;;;;;4849429;29;20076;-89
2022/06/07 07:39:24;;;;;;;20.63;15.65;;;13.40;99.90;;;;;;4847487;29;20045;-89
2022/06/07 07:41:51;;;;;;;20.38;15.10;;;13.50;99.90;;;;;;4849644;29;20504;-88
2022/06/07 07:44:18;;;;;;;19.63;15.75;;;13.50;99.90;;;;;;4868630;29;20543;-88
2022/06/07 07:46:45;;;;;;;18.67;14.93;;;13.40;99.90;;;;;;4848427;29;20576;-88
2022/06/07 07:49:14;;;;;;;19.20;15.93;;;13.40;99.90;;;;;;4862885;29;20078;-88
2022/06/07 07:51:44;;;;;;;21.67;16.20;;;13.40;99.90;;;;;;4866271;29;20084;-88
2022/06/07 07:54:14;;;;;;;21.38;16.88;;;13.40;99.90;;;;;;4849161;29;20041;-88
2022/06/07 07:56:40;;;;;;;21.63;17.30;;;13.40;99.90;;;;;;4859443;29;20137;-88
2022/06/07 07:59:08;;;;;;;22.38;17.25;;;13.50;99.90;;;;;;4863869;29;20045;-88
2022/06/07 08:01:34;;;;;;;20.85;16.10;;;13.40;99.90;;;;;;4831050;29;20053;-88
2022/06/07 08:04:01;;;;;;;22.80;16.95;;;13.50;99.90;;;;;;4841230;29;20143;-88
2022/06/07 08:06:30;;;;;;;21.90;16.13;;;13.40;99.90;;;;;;4857891;29;20037;-87
2022/06/07 08:08:59;;;;;;;19.65;15.15;;;13.40;99.90;;;;;;4847303;29;20076;-87
2022/06/07 08:11:28;;;;;;;20.48;14.57;;;13.40;99.90;;;;;;4841881;29;20088;-87
2022/06/07 08:13:55;;;;;;;19.98;12.75;;;13.30;99.90;;;;;;4839387;29;20045;-85
2022/06/07 08:16:21;;;;;;;20.20;12.68;;;13.30;99.90;;;;;;4863636;29;20041;-88
2022/06/07 08:18:47;;;;;;;20.23;13.85;;;13.30;99.90;;;;;;4836793;29;20622;-87
2022/06/07 08:21:16;;;;;;;18.65;12.77;;;13.20;99.90;;;;;;4868545;29;20389;-87
2022/06/07 08:23:42;;;;;;;17.20;13.05;;;13.30;99.90;;;;;;4854989;29;20056;-87
2022/06/07 08:26:08;;;;;;;19.52;12.57;;;13.40;99.90;;;;;;4845330;29;20048;-87
2022/06/07 08:28:35;;;;;;;18.98;12.65;;;13.40;99.90;;;;;;4849882;29;20040;-87
2022/06/07 08:31:01;;;;;;;15.73;11.60;;;13.50;99.90;;;;;;4839619;29;20048;-87
2022/06/07 08:39:01;;;;;;;18.25;10.60;;;13.70;99.90;;;;;;4860788;29;20056;-87
2022/06/07 08:41:50;;;;;;;17.15;11.30;;;13.60;99.90;;;;;;4846413;29;20140;-87
2022/06/07 08:44:38;;;;;;;20.60;10.38;;;13.70;99.90;;;;;;4847670;29;20052;-87
2022/06/07 08:47:19;;;;;;;17.40;10.95;;;13.70;99.90;;;;;;4861821;29;20394;-87
2022/06/07 08:49:45;;;;;;;16.25;10.00;;;13.70;99.90;;;;;;4858288;29;20045;-87
2022/06/07 08:52:25;;;;;;;17.33;10.40;;;13.80;99.90;;;;;;4859990;29;20064;-87
2022/06/07 08:54:51;;;;;;;17.05;10.75;;;13.70;99.90;;;;;;4860677;29;20113;-87
2022/06/07 08:57:30;;;;;;;16.30;10.25;;;13.70;99.90;;;;;;4829645;29;20048;-87
2022/06/07 09:00:16;;;;;;;17.83;11.13;;;13.80;99.90;;;;;;4848939;29;20045;-87
2022/06/07 09:03:20;;;;;;;18.15;11.35;;;13.80;99.90;;;;;;4850111;29;20128;-87
2022/06/07 09:05:54;;;;;;;19.10;12.52;;;13.80;99.90;;;;;;4857864;29;20048;-87
2022/06/07 09:08:20;;;;;;;15.30;11.70;;;13.80;99.90;;;;;;4860536;29;20037;-86
2022/06/07 09:13:35;;;;;;;18.90;12.88;;;13.80;99.90;;;;;;4858334;29;20056;-86
2022/06/07 09:16:02;;;;;;;18.30;12.57;;;13.70;99.90;;;;;;4857667;29;20085;-87
2022/06/07 09:18:31;;;;;;;19.98;12.82;;;13.80;99.90;;;;;;4866455;29;20394;-86
2022/06/07 09:21:08;;;;;;;16.83;12.32;;;13.80;99.90;;;;;;4845299;29;20053;-87
2022/06/07 09:23:43;;;;;;;16.35;12.35;;;13.80;99.90;;;;;;4844748;29;20041;-87
2022/06/07 09:26:24;;;;;;;18.20;12.10;;;13.90;99.90;;;;;;4855778;29;20504;-86
2022/06/07 09:29:04;;;;;;;19.10;11.85;;;13.90;99.90;;;;;;4843433;29;20219;-86
2022/06/07 09:31:30;;;;;;;16.60;11.77;;;14.00;99.90;;;;;;4856248;29;20041;-87
2022/06/07 09:34:02;;;;;;;18.75;11.27;;;14.00;99.90;;;;;;4840601;29;20186;-87
2022/06/07 09:36:32;;;;;;;17.23;11.27;;;14.10;99.90;;;;;;4845399;29;20428;-87
2022/06/07 09:39:04;;;;;;;16.70;11.25;;;14.10;99.90;;;;;;4845059;29;20052;-87
2022/06/07 09:41:42;;;;;;;;;;;14.10;99.90;;;;;;4844580;29;20033;-87
2022/06/07 09:44:33;;;;;;;15.02;10.75;;;14.10;99.90;;;;;;4863116;29;19976;-87
2022/06/07 09:46:59;;;;;;;16.30;11.00;;;14.10;99.90;;;;;;4853617;29;20159;-86
2022/06/07 09:49:44;;;;;;;17.02;11.32;;;14.10;99.90;;;;;;4854053;29;20205;-87
2022/06/07 09:52:13;;;;;;;14.13;11.00;;;14.20;99.90;;;;;;4845492;29;20072;-86
2022/06/07 09:54:43;;;;;;;19.70;11.55;;;14.20;99.90;;;;;;4855092;29;20454;-86
2022/06/07 09:57:35;;;;;;;15.88;11.45;;;14.20;99.90;;;;;;4858400;29;20439;-87
2022/06/07 10:00:09;;;;;;;17.25;11.18;;;14.30;99.90;;;;;;4854400;29;20077;-87
2022/06/07 10:02:49;;;;;;;18.38;12.30;;;14.30;99.90;;;;;;4839272;29;20044;-87
2022/06/07 10:05:54;;;;;;;16.20;11.10;;;14.30;99.90;;;;;;4856423;29;20049;-87
2022/06/07 10:08:34;;;;;;;16.02;11.00;;;14.30;99.90;;;;;;4841382;29;20516;-87
2022/06/07 10:11:21;;;;;;;15.80;10.30;;;14.30;99.90;;;;;;4858962;29;20045;-87
2022/06/07 10:13:59;;;;;;;16.17;10.45;;;14.30;99.90;;;;;;4854341;29;20083;-87
2022/06/07 10:16:42;;;;;;;16.52;10.68;;;14.40;99.90;;;;;;4854124;29;20136;-87
2022/06/07 10:19:34;;;;;;;15.45;10.55;;;14.40;99.90;;;;;;4854299;29;20064;-87
2022/06/07 10:22:24;;;;;;;15.30;9.93;;;14.40;99.90;;;;;;4859150;29;20126;-87
2022/06/07 10:24:58;;;;;;;15.77;10.05;;;14.50;99.90;;;;;;4814618;29;20049;-87
2022/06/07 10:27:27;;;;;;;15.68;9.70;;;14.50;99.90;;;;;;4858535;29;20045;-87
2022/06/07 10:30:15;;;;;;;16.10;9.40;;;14.50;99.90;;;;;;4861472;29;20509;-88
2022/06/07 10:32:47;;;;;;;16.27;8.68;;;14.60;99.90;;;;;;4857844;29;20318;-87
2022/06/07 10:35:55;;;;;;;13.43;8.27;;;14.60;99.90;;;;;;4859781;29;20045;-87
2022/06/07 10:38:47;;;;;;;13.55;7.72;;;14.70;99.90;;;;;;4878172;29;20045;-87
2022/06/07 10:41:36;;;;;;;12.40;7.10;;;14.60;99.90;;;;;;4860997;29;20040;-87
2022/06/07 10:44:18;;;;;;;13.65;7.15;;;14.70;99.90;;;;;;4845855;29;20041;-88
2022/06/07 10:46:46;;;;;;;15.80;6.72;;;14.70;99.90;;;;;;4860369;29;20041;-88
2022/06/07 10:49:37;;;;;;;12.30;6.70;;;14.70;99.90;;;;;;4847345;29;20529;-87
2022/06/07 10:52:21;;;;;;;12.20;6.57;;;14.90;99.90;;;;;;4839345;29;20057;-88
2022/06/07 10:55:08;;;;;;;14.65;6.60;;;15.00;99.90;;;;;;4859658;29;20148;-86
2022/06/07 10:57:52;;;;;;;14.50;6.45;;;15.20;99.90;;;;;;4860895;29;20072;-87
2022/06/07 11:00:31;;;;;;;12.02;6.15;;;15.20;99.90;;;;;;4858643;29;20386;-88
2022/06/07 11:03:34;;;;;;;11.80;6.32;;;15.30;99.90;;;;;;4858107;29;20040;-87
2022/06/07 11:09:43;;;;;;;13.35;6.38;;;15.20;99.90;;;;;;4859270;29;20057;-87
2022/06/07 11:12:47;;;;;;;10.95;6.03;;;15.20;99.90;;;;;;4859107;29;20049;-87
2022/06/07 11:15:31;;;;;;;14.15;6.20;;;15.20;99.90;;;;;;4842313;29;20053;-87
2022/06/07 11:18:18;;;;;;;13.48;6.25;;;15.20;99.90;;;;;;4860752;29;20117;-87
2022/06/07 11:21:08;;;;;;;13.10;6.90;;;15.00;99.90;;;;;;4848701;29;20045;-88
2022/06/07 11:24:17;;;;;;;14.80;6.93;;;15.00;99.90;;;;;;4842225;29;20518;-88
2022/06/07 11:26:52;;;;;;;12.05;6.78;;;14.90;99.90;;;;;;4858852;29;20489;-88
2022/06/07 11:29:27;;;;;;;12.68;7.07;;;14.90;99.90;;;;;;4864637;29;20571;-88
2022/06/07 11:31:53;;;;;;;13.27;7.18;;;15.00;99.90;;;;;;4878467;29;20059;-89
2022/06/07 11:34:33;;;;;;;10.90;6.95;;;14.90;99.90;;;;;;4865935;29;20049;-88
2022/06/07 11:37:07;;;;;;;13.60;7.07;;;14.90;99.90;;;;;;4863115;29;20047;-88
2022/06/07 11:39:39;;;;;;;14.35;7.72;;;14.80;99.90;;;;;;4857988;29;20054;-88
2022/06/07 11:42:15;;;;;;;18.83;7.80;;;14.80;99.90;;;;;;4856948;29;20040;-89
2022/06/07 11:44:41;;;;;;;14.18;7.95;;;14.90;99.90;;;;;;4857285;29;20501;-89
2022/06/07 11:47:07;;;;;;;14.82;7.35;;;14.90;99.90;;;;;;4860431;29;20044;-89
2022/06/07 11:50:13;;;;;;;15.55;7.75;;;14.90;99.90;;;;;;4861188;29;20175;-89
2022/06/07 11:52:55;;;;;;;16.40;8.27;;;14.80;99.90;;;;;;4841427;29;20068;-88
2022/06/07 11:55:25;;;;;;;13.43;7.78;;;14.70;99.90;;;;;;4862254;29;20136;-88
2022/06/07 11:57:57;;;;;;;13.70;7.53;;;14.80;99.90;;;;;;4847287;29;20056;-88
2022/06/07 12:00:23;;;;;;;;;;;14.80;99.90;;;;;;4878124;29;20045;-89
2022/06/07 12:03:00;;;;;;;11.85;6.97;;;14.90;99.90;;;;;;4862036;29;19978;-88
2022/06/07 12:05:40;;;;;;;12.40;7.10;;;14.80;99.90;;;;;;4862451;29;20101;-88
2022/06/07 12:08:30;;;;;;;11.68;7.18;;;14.80;99.90;;;;;;4845052;29;20051;-88
2022/06/07 12:11:21;;;;;;;15.15;7.00;;;14.80;99.90;;;;;;4846104;29;20049;-89
2022/06/07 12:13:56;;;;;;;15.77;7.47;;;14.80;99.90;;;;;;4862753;29;20125;-89
2022/06/07 12:16:44;;;;;;;13.82;7.10;;;15.00;99.90;;;;;;4879233;29;20093;-88
2022/06/07 12:19:23;;;;;;;14.13;7.38;;;15.10;99.90;;;;;;4865752;29;20404;-89
2022/06/07 12:22:01;;;;;;;13.25;6.80;;;15.20;99.90;;;;;;4861903;29;20045;-89
2022/06/07 12:24:28;;;;;;;12.82;6.60;;;15.30;99.90;;;;;;4862115;29;20052;-88
2022/06/07 12:26:54;;;;;;;13.18;6.95;;;15.40;99.90;;;;;;4846578;29;20047;-88
2022/06/07 12:29:28;;;;;;;14.15;6.75;;;15.30;99.90;;;;;;4862523;29;20509;-88
2022/06/07 12:32:00;;;;;;;12.55;6.93;;;15.40;99.90;;;;;;4864852;29;20037;-89
2022/06/07 12:34:26;;;;;;;;;;;15.40;99.90;;;;;;4845915;29;20053;-89
2022/06/07 12:36:53;;;;;;;13.40;7.10;;;15.50;99.90;;;;;;4862295;29;20007;-89
2022/06/07 12:39:20;;;;;;;11.63;6.40;;;15.50;99.90;;;;;;4862234;29;20044;-89
2022/06/07 12:42:04;;;;;;;12.70;6.00;;;15.60;99.90;;;;;;4831487;29;20045;-89
2022/06/07 12:44:36;;;;;;;14.23;6.35;;;15.60;99.90;;;;;;4846819;29;20557;-89
2022/06/07 12:47:03;;;;;;;13.20;6.07;;;15.70;99.90;;;;;;4846032;29;20484;-88
2022/06/07 12:49:31;;;;;;;12.43;6.32;;;15.80;99.90;;;;;;4845629;29;20076;-89
2022/06/07 12:52:04;;;;;;;13.70;5.95;;;15.80;99.90;;;;;;4844589;29;20045;-90
2022/06/07 12:54:33;;;;;;;11.52;5.93;;;15.80;99.90;;;;;;4858251;29;20057;-88
2022/06/07 12:57:12;;;;;;;13.93;5.63;;;15.90;99.90;;;;;;4859365;29;20508;-87
2022/06/07 12:59:50;;;;;;;11.05;5.80;;;16.00;99.90;;;;;;4860589;29;20121;-89
2022/06/07 13:02:25;;;;;;;12.38;5.70;;;16.10;99.90;;;;;;4846310;29;20488;-89
2022/06/07 13:04:57;;;;;;;12.23;5.63;;;16.00;99.90;;;;;;4852938;29;20057;-88
2022/06/07 13:07:27;;;;;;;11.80;5.50;;;16.20;99.90;;;;;;4846487;29;20041;-89
2022/06/07 13:09:58;;;;;;;10.55;5.32;;;16.40;99.90;;;;;;4880617;29;20048;-88
2022/06/07 13:12:42;;;;;;;10.07;5.13;;;16.70;99.90;;;;;;4863315;29;20041;-89
2022/06/07 13:15:25;;;;;;;10.18;5.70;;;16.90;99.90;;;;;;4859978;29;20085;-89